KNFE

Details ICAO KNFE
Name Fentress Nalf
Region United States
Timezone America/New_York (UTC-4.0)
Plans Departing 2
Arriving 2
Stats Elevation 16 ft / 5 m (AMSL)
Location 36.692100° -76.134600°
Runways 1
Magnetic Variation 10.930° W
Sunrise 2019-05-20 09:55:06 UTC / 2019-05-20 05:55:06 Local
Sunset 2019-05-21 00:09:52 UTC / 2019-05-20 20:09:52 Local
Advertisement - Login to hide

Runways

ID Width Length Bearing (true/mag) Surface Threshold Overrun Markings Lighting
05 174 ft / 53 m 8,067 ft / 2,459 m 39.48° / 50.41° ASPHALT 1,020 ft / 311 m 0 ft / 0 m APP EDGE THRESHOLD
23 174 ft / 53 m 8,067 ft / 2,459 m 219.49° / 230.42° ASPHALT 1,056 ft / 322 m 0 ft / 0 m APP EDGE THRESHOLD

Map

Weather


0- 5 10 15 20 25 30 35+ Temperature / °C

Clouds and Precipitation
Forecast for 2019-05-21 00:00 UTC. Updated an hour ago

Ground ~20,000 ft ~40,000 ft Winds

METAR

KNFE 202156Z AUTO 22009G16KT 180V260 10SM FEW070 33/17 A2985 RMK AO2 SLP109 T03330167

TAF

Not found

Frequencies

Approach 118.90 MHz
Approach 119.60 MHz OCEANA NAS APP
Departure 125.20 MHz
Tower 120.80 MHz
Recorded 127.15 MHz ATIS
Clearance 118.50 MHz CLNC DEL
Ground 121.90 MHz
Warning: Do not use this data for real-world aviation or navigation. No guarantee of current accuracy is given.